Impacts TAF Board INFO
FOR SITUATIONAL AWARENESS. NOT TO BE USED FOR FLIGHT PLANNING PURPOSES.
IDs:

KTPA - Tampa Intl Arpt, FL, US

Issued at 2335 UTC 27 May 2018
Updated at 0138 UTC 28 May 2018
Potential Impact None Slight Moderate High
Time0053Z 28/02Z 28/03Z 28/04Z 28/05Z 28/06Z 28/07Z 28/08Z 28/09Z 28/10Z 28/11Z 28/12Z 28/13Z 28/14Z>>
Type OBS PRVL PRVL PRVL PRVL PRVL PRVL PRVL PRVL PRVL PRVL PRVL PRVL PRVL
VIS 10 >6 >6 >6 >6 >6 >6 >6 >6 >6 >6 >6 >6 >6
CIG -- 250 40 40 40 40 40 40 20 20 20 20 20 40
Cover FEW OVC OVC OVC OVC OVC OVC OVC BKN BKN BKN BKN BKN OVC
FltCat VFR VFR VFR VFR VFR VFR VFR VFR MVFR MVFR MVFR MVFR MVFR VFR
WX -- VCSH VCSH VCSH VCSH VCSH VCSH VCSH -- -- -- -- -- VCSH
WDir 160 180 170 170 170 170 170 170 160 160 160 160 160 170
WSpd 8 15 15 15 15 15 15 15 17 17 17 17 17 14
WGst -- 20 20 20 20 20 20 20 20 20 20 20 20 21

Raw TAF
KTPA 272335Z 2800/2906 18015G20KT P6SM VCSH FEW015 SCT030 OVC250
  FM280300 17015G20KT P6SM VCSH BKN040 OVC250
  FM280900 16017G20KT P6SM BKN020 BKN040
  FM281400 17014G21KT P6SM VCSH SCT020 OVC040
  FM281800 21015G23KT P6SM VCTS FEW025CB BKN050
  FM290200 21015KT P6SM VCSH SCT030 BKN100


Raw METAR
KTPA 280053Z 16008KT 130V190 10SM FEW030 FEW090 27/21 A2975 RMK AO2 SLP073 T02720211
KTPA 272353Z 17008KT 10SM SCT030 SCT090 28/22 A2973 RMK AO2 SLP067 60000 T02780217 10294 20261 53008
KTPA 272253Z 18011KT 10SM FEW030TCU FEW120 28/23 A2971 RMK AO2 SLP060 TCU E T02780233

METAR Board
Radar Display
Forecast Discussion

FOR SITUATIONAL AWARENESS. NOT TO BE USED FOR FLIGHT PLANNING PURPOSES.